sensor_id;sensor_type;location;lat;lon;timestamp;P1;durP1;ratioP1;P2;durP2;ratioP2
43504;SDS011;29098;48.184;16.298;2024-02-14T00:00:31;8.50;;;4.30;;
43504;SDS011;29098;48.184;16.298;2024-02-14T00:02:56;8.85;;;3.60;;
43504;SDS011;29098;48.184;16.298;2024-02-14T00:05:22;11.00;;;5.13;;
43504;SDS011;29098;48.184;16.298;2024-02-14T00:07:48;7.78;;;4.30;;
43504;SDS011;29098;48.184;16.298;2024-02-14T00:10:13;7.15;;;4.13;;
43504;SDS011;29098;48.184;16.298;2024-02-14T00:12:39;8.70;;;4.55;;
43504;SDS011;29098;48.184;16.298;2024-02-14T00:15:04;8.90;;;4.68;;
43504;SDS011;29098;48.184;16.298;2024-02-14T00:17:33;8.52;;;4.13;;
43504;SDS011;29098;48.184;16.298;2024-02-14T00:20:00;5.50;;;3.22;;
43504;SDS011;29098;48.184;16.298;2024-02-14T00:22:26;6.28;;;3.90;;
43504;SDS011;29098;48.184;16.298;2024-02-14T00:24:51;6.82;;;3.60;;
43504;SDS011;29098;48.184;16.298;2024-02-14T00:27:17;10.30;;;4.65;;
43504;SDS011;29098;48.184;16.298;2024-02-14T00:29:43;8.40;;;3.95;;
43504;SDS011;29098;48.184;16.298;2024-02-14T00:32:10;6.85;;;4.20;;
43504;SDS011;29098;48.184;16.298;2024-02-14T00:34:37;7.03;;;3.55;;
43504;SDS011;29098;48.184;16.298;2024-02-14T00:37:02;7.70;;;3.53;;
43504;SDS011;29098;48.184;16.298;2024-02-14T00:39:28;7.47;;;3.80;;
43504;SDS011;29098;48.184;16.298;2024-02-14T00:41:54;8.15;;;3.72;;
43504;SDS011;29098;48.184;16.298;2024-02-14T00:44:20;8.23;;;4.68;;
43504;SDS011;29098;48.184;16.298;2024-02-14T00:46:45;8.43;;;3.53;;
43504;SDS011;29098;48.184;16.298;2024-02-14T00:49:11;7.28;;;3.95;;
43504;SDS011;29098;48.184;16.298;2024-02-14T00:51:37;10.57;;;4.13;;
43504;SDS011;29098;48.184;16.298;2024-02-14T00:54:04;7.75;;;4.03;;
43504;SDS011;29098;48.184;16.298;2024-02-14T00:56:30;8.60;;;4.10;;
43504;SDS011;29098;48.184;16.298;2024-02-14T00:58:55;9.07;;;5.50;;
43504;SDS011;29098;48.184;16.298;2024-02-14T01:01:21;9.50;;;5.43;;
43504;SDS011;29098;48.184;16.298;2024-02-14T01:03:47;8.35;;;4.43;;
43504;SDS011;29098;48.184;16.298;2024-02-14T01:06:13;7.30;;;4.50;;
43504;SDS011;29098;48.184;16.298;2024-02-14T01:08:39;16.05;;;5.43;;
43504;SDS011;29098;48.184;16.298;2024-02-14T01:11:06;14.45;;;4.72;;
43504;SDS011;29098;48.184;16.298;2024-02-14T01:13:32;10.57;;;4.80;;
43504;SDS011;29098;48.184;16.298;2024-02-14T01:15:57;10.73;;;4.68;;
43504;SDS011;29098;48.184;16.298;2024-02-14T01:18:23;11.80;;;5.65;;
43504;SDS011;29098;48.184;16.298;2024-02-14T01:20:49;9.80;;;4.07;;
43504;SDS011;29098;48.184;16.298;2024-02-14T01:23:14;9.65;;;4.40;;
43504;SDS011;29098;48.184;16.298;2024-02-14T01:25:40;6.95;;;4.10;;
43504;SDS011;29098;48.184;16.298;2024-02-14T01:28:07;8.18;;;4.07;;
43504;SDS011;29098;48.184;16.298;2024-02-14T01:30:33;8.23;;;5.25;;
43504;SDS011;29098;48.184;16.298;2024-02-14T01:33:01;7.55;;;4.78;;
43504;SDS011;29098;48.184;16.298;2024-02-14T01:35:26;8.20;;;4.15;;
43504;SDS011;29098;48.184;16.298;2024-02-14T01:37:52;14.45;;;4.78;;
43504;SDS011;29098;48.184;16.298;2024-02-14T01:40:19;8.93;;;3.60;;
43504;SDS011;29098;48.184;16.298;2024-02-14T01:42:45;9.77;;;4.88;;
43504;SDS011;29098;48.184;16.298;2024-02-14T01:45:10;8.38;;;3.80;;
43504;SDS011;29098;48.184;16.298;2024-02-14T01:47:35;6.45;;;4.35;;
43504;SDS011;29098;48.184;16.298;2024-02-14T01:50:01;9.25;;;4.55;;
43504;SDS011;29098;48.184;16.298;2024-02-14T01:52:27;9.52;;;3.92;;
43504;SDS011;29098;48.184;16.298;2024-02-14T01:54:52;8.15;;;3.70;;
43504;SDS011;29098;48.184;16.298;2024-02-14T01:57:20;8.98;;;3.75;;
43504;SDS011;29098;48.184;16.298;2024-02-14T01:59:46;11.27;;;4.18;;
43504;SDS011;29098;48.184;16.298;2024-02-14T02:02:14;10.35;;;4.32;;
43504;SDS011;29098;48.184;16.298;2024-02-14T02:04:41;9.88;;;4.55;;
43504;SDS011;29098;48.184;16.298;2024-02-14T02:07:06;10.00;;;4.35;;
43504;SDS011;29098;48.184;16.298;2024-02-14T02:09:32;10.73;;;4.38;;
43504;SDS011;29098;48.184;16.298;2024-02-14T02:11:59;6.13;;;3.63;;
43504;SDS011;29098;48.184;16.298;2024-02-14T02:14:25;6.15;;;3.70;;
43504;SDS011;29098;48.184;16.298;2024-02-14T02:16:51;8.88;;;3.78;;
43504;SDS011;29098;48.184;16.298;2024-02-14T02:19:17;9.30;;;4.88;;
43504;SDS011;29098;48.184;16.298;2024-02-14T02:21:42;6.47;;;3.55;;
43504;SDS011;29098;48.184;16.298;2024-02-14T02:24:11;7.43;;;4.50;;
43504;SDS011;29098;48.184;16.298;2024-02-14T02:26:36;7.70;;;3.72;;
43504;SDS011;29098;48.184;16.298;2024-02-14T02:29:02;7.72;;;3.40;;
43504;SDS011;29098;48.184;16.298;2024-02-14T02:31:28;7.63;;;4.03;;
43504;SDS011;29098;48.184;16.298;2024-02-14T02:33:53;9.18;;;3.83;;
43504;SDS011;29098;48.184;16.298;2024-02-14T02:36:18;6.80;;;3.28;;
43504;SDS011;29098;48.184;16.298;2024-02-14T02:38:44;10.43;;;4.88;;
43504;SDS011;29098;48.184;16.298;2024-02-14T02:41:09;5.82;;;3.22;;
43504;SDS011;29098;48.184;16.298;2024-02-14T02:43:35;6.72;;;3.38;;
43504;SDS011;29098;48.184;16.298;2024-02-14T02:46:01;5.28;;;3.03;;
43504;SDS011;29098;48.184;16.298;2024-02-14T02:48:27;6.90;;;3.40;;
43504;SDS011;29098;48.184;16.298;2024-02-14T02:50:52;10.68;;;3.50;;
43504;SDS011;29098;48.184;16.298;2024-02-14T02:53:18;7.25;;;3.28;;
43504;SDS011;29098;48.184;16.298;2024-02-14T02:55:44;4.97;;;2.90;;
43504;SDS011;29098;48.184;16.298;2024-02-14T02:58:10;4.93;;;2.85;;
43504;SDS011;29098;48.184;16.298;2024-02-14T03:00:36;7.85;;;3.10;;
43504;SDS011;29098;48.184;16.298;2024-02-14T03:03:02;6.82;;;3.28;;
43504;SDS011;29098;48.184;16.298;2024-02-14T03:05:29;4.63;;;2.58;;
43504;SDS011;29098;48.184;16.298;2024-02-14T03:07:58;6.65;;;3.15;;
43504;SDS011;29098;48.184;16.298;2024-02-14T03:10:24;7.22;;;2.83;;
43504;SDS011;29098;48.184;16.298;2024-02-14T03:12:50;8.65;;;3.42;;
43504;SDS011;29098;48.184;16.298;2024-02-14T03:15:16;5.93;;;3.10;;
43504;SDS011;29098;48.184;16.298;2024-02-14T03:17:42;6.20;;;3.00;;
43504;SDS011;29098;48.184;16.298;2024-02-14T03:20:08;6.97;;;2.97;;
43504;SDS011;29098;48.184;16.298;2024-02-14T03:22:40;6.85;;;3.08;;
43504;SDS011;29098;48.184;16.298;2024-02-14T03:25:19;8.63;;;3.40;;
43504;SDS011;29098;48.184;16.298;2024-02-14T03:27:45;6.72;;;3.08;;
43504;SDS011;29098;48.184;16.298;2024-02-14T03:30:14;6.70;;;3.33;;
43504;SDS011;29098;48.184;16.298;2024-02-14T03:32:41;8.63;;;2.95;;
43504;SDS011;29098;48.184;16.298;2024-02-14T03:35:07;5.03;;;2.70;;
43504;SDS011;29098;48.184;16.298;2024-02-14T03:37:35;5.25;;;2.90;;
43504;SDS011;29098;48.184;16.298;2024-02-14T03:40:02;9.20;;;4.25;;
43504;SDS011;29098;48.184;16.298;2024-02-14T03:42:30;6.60;;;2.92;;
43504;SDS011;29098;48.184;16.298;2024-02-14T03:44:55;5.30;;;2.92;;
43504;SDS011;29098;48.184;16.298;2024-02-14T03:47:27;6.07;;;3.03;;
43504;SDS011;29098;48.184;16.298;2024-02-14T03:49:56;4.97;;;2.97;;
43504;SDS011;29098;48.184;16.298;2024-02-14T03:52:22;5.30;;;3.03;;
43504;SDS011;29098;48.184;16.298;2024-02-14T03:54:48;6.55;;;3.38;;
43504;SDS011;29098;48.184;16.298;2024-02-14T03:57:13;5.95;;;2.78;;
43504;SDS011;29098;48.184;16.298;2024-02-14T03:59:39;4.82;;;2.50;;
43504;SDS011;29098;48.184;16.298;2024-02-14T04:02:05;7.65;;;3.30;;
43504;SDS011;29098;48.184;16.298;2024-02-14T04:04:31;5.68;;;3.53;;
43504;SDS011;29098;48.184;16.298;2024-02-14T04:06:58;5.90;;;2.58;;
43504;SDS011;29098;48.184;16.298;2024-02-14T04:09:26;6.47;;;2.95;;
43504;SDS011;29098;48.184;16.298;2024-02-14T04:11:51;8.43;;;3.17;;
43504;SDS011;29098;48.184;16.298;2024-02-14T04:14:17;6.15;;;3.40;;
43504;SDS011;29098;48.184;16.298;2024-02-14T04:16:42;5.68;;;3.00;;
43504;SDS011;29098;48.184;16.298;2024-02-14T04:19:08;7.50;;;3.42;;
43504;SDS011;29098;48.184;16.298;2024-02-14T04:21:36;8.27;;;3.20;;
43504;SDS011;29098;48.184;16.298;2024-02-14T04:24:02;7.53;;;2.80;;
43504;SDS011;29098;48.184;16.298;2024-02-14T04:26:28;6.15;;;2.53;;
43504;SDS011;29098;48.184;16.298;2024-02-14T04:28:53;6.60;;;3.28;;
43504;SDS011;29098;48.184;16.298;2024-02-14T04:31:19;6.28;;;3.00;;
43504;SDS011;29098;48.184;16.298;2024-02-14T04:33:44;3.92;;;2.67;;
43504;SDS011;29098;48.184;16.298;2024-02-14T04:36:15;14.23;;;4.15;;
43504;SDS011;29098;48.184;16.298;2024-02-14T04:38:41;5.50;;;3.47;;
43504;SDS011;29098;48.184;16.298;2024-02-14T04:41:06;7.43;;;2.83;;
43504;SDS011;29098;48.184;16.298;2024-02-14T04:43:32;5.30;;;2.95;;
43504;SDS011;29098;48.184;16.298;2024-02-14T04:45:57;10.88;;;3.15;;
43504;SDS011;29098;48.184;16.298;2024-02-14T04:48:23;7.47;;;3.38;;
43504;SDS011;29098;48.184;16.298;2024-02-14T04:50:48;5.60;;;4.15;;
43504;SDS011;29098;48.184;16.298;2024-02-14T04:53:14;5.05;;;3.33;;
43504;SDS011;29098;48.184;16.298;2024-02-14T04:55:41;8.60;;;3.70;;
43504;SDS011;29098;48.184;16.298;2024-02-14T04:58:07;6.10;;;3.35;;
43504;SDS011;29098;48.184;16.298;2024-02-14T05:00:32;6.75;;;3.10;;
43504;SDS011;29098;48.184;16.298;2024-02-14T05:02:58;6.63;;;3.25;;
43504;SDS011;29098;48.184;16.298;2024-02-14T05:05:23;5.57;;;3.58;;
43504;SDS011;29098;48.184;16.298;2024-02-14T05:07:48;7.47;;;4.32;;
43504;SDS011;29098;48.184;16.298;2024-02-14T05:10:14;8.25;;;3.70;;
43504;SDS011;29098;48.184;16.298;2024-02-14T05:12:40;5.18;;;3.15;;
43504;SDS011;29098;48.184;16.298;2024-02-14T05:15:06;5.18;;;3.00;;
43504;SDS011;29098;48.184;16.298;2024-02-14T05:17:31;7.95;;;3.40;;
43504;SDS011;29098;48.184;16.298;2024-02-14T05:19:57;6.90;;;3.85;;
43504;SDS011;29098;48.184;16.298;2024-02-14T05:22:22;4.53;;;3.13;;
43504;SDS011;29098;48.184;16.298;2024-02-14T05:24:48;9.45;;;4.32;;
43504;SDS011;29098;48.184;16.298;2024-02-14T05:27:13;5.93;;;2.90;;
43504;SDS011;29098;48.184;16.298;2024-02-14T05:29:39;6.45;;;3.05;;
43504;SDS011;29098;48.184;16.298;2024-02-14T05:32:04;7.22;;;4.43;;
43504;SDS011;29098;48.184;16.298;2024-02-14T05:34:30;6.63;;;3.15;;
43504;SDS011;29098;48.184;16.298;2024-02-14T05:36:55;5.47;;;2.95;;
43504;SDS011;29098;48.184;16.298;2024-02-14T05:39:21;4.38;;;2.90;;
43504;SDS011;29098;48.184;16.298;2024-02-14T05:41:47;5.18;;;2.78;;
43504;SDS011;29098;48.184;16.298;2024-02-14T05:44:14;4.75;;;2.95;;
43504;SDS011;29098;48.184;16.298;2024-02-14T05:46:39;5.97;;;3.38;;
43504;SDS011;29098;48.184;16.298;2024-02-14T05:49:05;5.40;;;3.25;;
43504;SDS011;29098;48.184;16.298;2024-02-14T05:51:31;4.70;;;2.67;;
43504;SDS011;29098;48.184;16.298;2024-02-14T05:53:56;6.60;;;3.15;;
43504;SDS011;29098;48.184;16.298;2024-02-14T05:56:22;5.05;;;2.70;;
43504;SDS011;29098;48.184;16.298;2024-02-14T05:58:47;6.95;;;3.17;;
43504;SDS011;29098;48.184;16.298;2024-02-14T06:01:13;5.35;;;3.10;;
43504;SDS011;29098;48.184;16.298;2024-02-14T06:03:41;4.80;;;2.80;;
43504;SDS011;29098;48.184;16.298;2024-02-14T06:06:08;7.72;;;3.53;;
43504;SDS011;29098;48.184;16.298;2024-02-14T06:08:33;6.90;;;4.00;;
43504;SDS011;29098;48.184;16.298;2024-02-14T06:10:59;8.27;;;3.22;;
43504;SDS011;29098;48.184;16.298;2024-02-14T06:13:24;7.25;;;3.33;;
43504;SDS011;29098;48.184;16.298;2024-02-14T06:15:50;16.85;;;6.32;;
43504;SDS011;29098;48.184;16.298;2024-02-14T06:18:15;33.47;;;14.07;;
43504;SDS011;29098;48.184;16.298;2024-02-14T06:20:41;32.30;;;14.43;;
43504;SDS011;29098;48.184;16.298;2024-02-14T06:23:06;34.97;;;14.88;;
43504;SDS011;29098;48.184;16.298;2024-02-14T06:25:33;39.78;;;16.48;;
43504;SDS011;29098;48.184;16.298;2024-02-14T06:27:58;41.85;;;16.83;;
43504;SDS011;29098;48.184;16.298;2024-02-14T06:30:24;29.83;;;12.88;;
43504;SDS011;29098;48.184;16.298;2024-02-14T06:32:49;20.45;;;8.77;;
43504;SDS011;29098;48.184;16.298;2024-02-14T06:35:14;19.48;;;9.35;;
43504;SDS011;29098;48.184;16.298;2024-02-14T06:37:43;14.13;;;6.97;;
43504;SDS011;29098;48.184;16.298;2024-02-14T06:40:09;14.18;;;5.57;;
43504;SDS011;29098;48.184;16.298;2024-02-14T06:42:35;13.20;;;5.25;;
43504;SDS011;29098;48.184;16.298;2024-02-14T06:45:01;9.52;;;4.78;;
43504;SDS011;29098;48.184;16.298;2024-02-14T06:47:26;11.93;;;4.82;;
43504;SDS011;29098;48.184;16.298;2024-02-14T06:49:55;8.75;;;4.70;;
43504;SDS011;29098;48.184;16.298;2024-02-14T06:52:20;7.43;;;3.85;;
43504;SDS011;29098;48.184;16.298;2024-02-14T06:54:46;7.15;;;4.55;;
43504;SDS011;29098;48.184;16.298;2024-02-14T06:57:13;10.65;;;4.40;;
43504;SDS011;29098;48.184;16.298;2024-02-14T06:59:38;8.63;;;5.32;;
43504;SDS011;29098;48.184;16.298;2024-02-14T07:02:04;9.75;;;5.22;;
43504;SDS011;29098;48.184;16.298;2024-02-14T07:04:31;6.45;;;4.00;;
43504;SDS011;29098;48.184;16.298;2024-02-14T07:06:56;10.15;;;4.50;;
43504;SDS011;29098;48.184;16.298;2024-02-14T07:09:22;7.35;;;5.50;;
43504;SDS011;29098;48.184;16.298;2024-02-14T07:11:47;10.13;;;4.95;;
43504;SDS011;29098;48.184;16.298;2024-02-14T07:14:12;8.10;;;4.15;;
43504;SDS011;29098;48.184;16.298;2024-02-14T07:16:38;8.52;;;5.13;;
43504;SDS011;29098;48.184;16.298;2024-02-14T07:19:03;7.10;;;5.18;;
43504;SDS011;29098;48.184;16.298;2024-02-14T07:21:29;7.90;;;5.65;;
43504;SDS011;29098;48.184;16.298;2024-02-14T07:23:54;13.68;;;5.45;;
43504;SDS011;29098;48.184;16.298;2024-02-14T07:26:20;9.07;;;4.80;;
43504;SDS011;29098;48.184;16.298;2024-02-14T07:28:45;7.43;;;4.80;;
43504;SDS011;29098;48.184;16.298;2024-02-14T07:31:11;11.07;;;4.70;;
43504;SDS011;29098;48.184;16.298;2024-02-14T07:33:36;9.32;;;4.50;;
43504;SDS011;29098;48.184;16.298;2024-02-14T07:36:02;7.70;;;4.70;;
43504;SDS011;29098;48.184;16.298;2024-02-14T07:38:27;11.07;;;6.15;;
43504;SDS011;29098;48.184;16.298;2024-02-14T07:40:53;9.75;;;4.97;;
43504;SDS011;29098;48.184;16.298;2024-02-14T07:43:19;9.73;;;4.20;;
43504;SDS011;29098;48.184;16.298;2024-02-14T07:45:44;9.88;;;4.75;;
43504;SDS011;29098;48.184;16.298;2024-02-14T07:48:09;11.40;;;4.80;;
43504;SDS011;29098;48.184;16.298;2024-02-14T07:50:35;10.05;;;4.50;;
43504;SDS011;29098;48.184;16.298;2024-02-14T07:53:02;9.13;;;4.00;;
43504;SDS011;29098;48.184;16.298;2024-02-14T07:55:27;11.63;;;5.03;;
43504;SDS011;29098;48.184;16.298;2024-02-14T07:57:53;9.57;;;4.50;;
43504;SDS011;29098;48.184;16.298;2024-02-14T08:00:19;9.35;;;5.32;;
43504;SDS011;29098;48.184;16.298;2024-02-14T08:02:50;8.55;;;5.70;;
43504;SDS011;29098;48.184;16.298;2024-02-14T08:05:16;10.55;;;6.53;;
43504;SDS011;29098;48.184;16.298;2024-02-14T08:07:42;11.82;;;5.85;;
43504;SDS011;29098;48.184;16.298;2024-02-14T08:10:09;8.50;;;5.78;;
43504;SDS011;29098;48.184;16.298;2024-02-14T08:12:34;9.43;;;6.57;;
43504;SDS011;29098;48.184;16.298;2024-02-14T08:15:00;10.57;;;5.47;;
43504;SDS011;29098;48.184;16.298;2024-02-14T08:17:29;8.23;;;5.43;;
43504;SDS011;29098;48.184;16.298;2024-02-14T08:19:55;10.27;;;5.30;;
43504;SDS011;29098;48.184;16.298;2024-02-14T08:22:20;7.82;;;4.47;;
43504;SDS011;29098;48.184;16.298;2024-02-14T08:24:46;6.32;;;4.15;;
43504;SDS011;29098;48.184;16.298;2024-02-14T08:27:11;11.40;;;4.22;;
43504;SDS011;29098;48.184;16.298;2024-02-14T08:29:37;6.97;;;4.18;;
43504;SDS011;29098;48.184;16.298;2024-02-14T08:32:02;6.40;;;3.83;;
43504;SDS011;29098;48.184;16.298;2024-02-14T08:34:28;6.85;;;4.38;;
43504;SDS011;29098;48.184;16.298;2024-02-14T08:36:54;7.95;;;3.85;;
43504;SDS011;29098;48.184;16.298;2024-02-14T08:39:20;7.88;;;3.80;;
43504;SDS011;29098;48.184;16.298;2024-02-14T08:41:45;7.13;;;3.95;;
43504;SDS011;29098;48.184;16.298;2024-02-14T08:44:12;7.68;;;4.45;;
43504;SDS011;29098;48.184;16.298;2024-02-14T08:46:38;10.65;;;3.80;;
43504;SDS011;29098;48.184;16.298;2024-02-14T08:49:04;8.93;;;4.45;;
43504;SDS011;29098;48.184;16.298;2024-02-14T08:51:34;7.80;;;3.92;;
43504;SDS011;29098;48.184;16.298;2024-02-14T08:54:00;10.57;;;3.78;;
43504;SDS011;29098;48.184;16.298;2024-02-14T08:56:30;6.15;;;3.72;;
43504;SDS011;29098;48.184;16.298;2024-02-14T08:58:58;8.13;;;3.83;;
43504;SDS011;29098;48.184;16.298;2024-02-14T09:01:25;7.80;;;3.72;;
43504;SDS011;29098;48.184;16.298;2024-02-14T09:03:51;7.43;;;3.72;;
43504;SDS011;29098;48.184;16.298;2024-02-14T09:06:16;6.93;;;3.80;;
43504;SDS011;29098;48.184;16.298;2024-02-14T09:08:43;9.50;;;4.00;;
43504;SDS011;29098;48.184;16.298;2024-02-14T09:11:09;5.05;;;3.28;;
43504;SDS011;29098;48.184;16.298;2024-02-14T09:13:35;8.50;;;3.75;;
43504;SDS011;29098;48.184;16.298;2024-02-14T09:16:00;9.40;;;4.55;;
43504;SDS011;29098;48.184;16.298;2024-02-14T09:18:26;9.18;;;3.83;;
43504;SDS011;29098;48.184;16.298;2024-02-14T09:20:52;6.85;;;3.80;;
43504;SDS011;29098;48.184;16.298;2024-02-14T09:23:17;8.05;;;3.63;;
43504;SDS011;29098;48.184;16.298;2024-02-14T09:25:47;9.02;;;3.72;;
43504;SDS011;29098;48.184;16.298;2024-02-14T09:28:13;10.07;;;5.28;;
43504;SDS011;29098;48.184;16.298;2024-02-14T09:30:40;12.40;;;3.70;;
43504;SDS011;29098;48.184;16.298;2024-02-14T09:33:06;8.82;;;3.92;;
43504;SDS011;29098;48.184;16.298;2024-02-14T09:35:31;5.38;;;3.45;;
43504;SDS011;29098;48.184;16.298;2024-02-14T09:37:57;8.45;;;3.60;;
43504;SDS011;29098;48.184;16.298;2024-02-14T09:40:22;10.45;;;4.30;;
43504;SDS011;29098;48.184;16.298;2024-02-14T09:42:54;15.80;;;4.45;;
43504;SDS011;29098;48.184;16.298;2024-02-14T09:45:23;9.80;;;4.18;;
43504;SDS011;29098;48.184;16.298;2024-02-14T09:47:51;6.97;;;3.85;;
43504;SDS011;29098;48.184;16.298;2024-02-14T09:50:17;6.07;;;3.50;;
43504;SDS011;29098;48.184;16.298;2024-02-14T09:52:45;9.93;;;4.53;;
43504;SDS011;29098;48.184;16.298;2024-02-14T09:55:13;13.43;;;4.15;;
43504;SDS011;29098;48.184;16.298;2024-02-14T09:57:41;8.20;;;5.00;;
43504;SDS011;29098;48.184;16.298;2024-02-14T10:00:11;13.50;;;4.90;;
43504;SDS011;29098;48.184;16.298;2024-02-14T10:02:40;11.52;;;4.25;;
43504;SDS011;29098;48.184;16.298;2024-02-14T10:05:06;12.27;;;5.50;;
43504;SDS011;29098;48.184;16.298;2024-02-14T10:07:42;9.43;;;5.40;;
43504;SDS011;29098;48.184;16.298;2024-02-14T10:10:08;8.05;;;4.78;;
43504;SDS011;29098;48.184;16.298;2024-02-14T10:12:35;12.00;;;4.35;;
43504;SDS011;29098;48.184;16.298;2024-02-14T10:15:00;11.25;;;4.45;;
43504;SDS011;29098;48.184;16.298;2024-02-14T10:17:27;9.75;;;4.45;;
43504;SDS011;29098;48.184;16.298;2024-02-14T10:19:59;9.55;;;4.30;;
43504;SDS011;29098;48.184;16.298;2024-02-14T10:22:32;8.55;;;3.53;;
43504;SDS011;29098;48.184;16.298;2024-02-14T10:24:59;9.07;;;4.40;;
43504;SDS011;29098;48.184;16.298;2024-02-14T10:27:25;8.20;;;4.25;;
43504;SDS011;29098;48.184;16.298;2024-02-14T10:29:50;10.23;;;4.55;;
43504;SDS011;29098;48.184;16.298;2024-02-14T10:32:16;9.30;;;4.40;;
43504;SDS011;29098;48.184;16.298;2024-02-14T10:34:42;9.82;;;3.83;;
43504;SDS011;29098;48.184;16.298;2024-02-14T10:37:10;11.27;;;5.35;;
43504;SDS011;29098;48.184;16.298;2024-02-14T10:39:41;11.57;;;3.58;;
43504;SDS011;29098;48.184;16.298;2024-02-14T10:42:07;6.22;;;4.03;;
43504;SDS011;29098;48.184;16.298;2024-02-14T10:44:34;6.03;;;3.38;;
43504;SDS011;29098;48.184;16.298;2024-02-14T10:47:00;7.13;;;2.80;;
43504;SDS011;29098;48.184;16.298;2024-02-14T10:49:29;8.27;;;3.05;;
43504;SDS011;29098;48.184;16.298;2024-02-14T10:51:56;6.60;;;2.33;;
43504;SDS011;29098;48.184;16.298;2024-02-14T10:54:25;4.60;;;2.50;;
43504;SDS011;29098;48.184;16.298;2024-02-14T10:56:51;6.10;;;2.17;;
43504;SDS011;29098;48.184;16.298;2024-02-14T10:59:23;5.65;;;2.05;;
43504;SDS011;29098;48.184;16.298;2024-02-14T11:01:50;6.20;;;2.33;;
43504;SDS011;29098;48.184;16.298;2024-02-14T11:04:16;7.13;;;2.40;;
43504;SDS011;29098;48.184;16.298;2024-02-14T11:06:46;6.85;;;2.42;;
43504;SDS011;29098;48.184;16.298;2024-02-14T11:09:13;6.45;;;2.13;;
43504;SDS011;29098;48.184;16.298;2024-02-14T11:11:47;6.20;;;2.35;;
43504;SDS011;29098;48.184;16.298;2024-02-14T11:14:17;5.45;;;1.88;;
43504;SDS011;29098;48.184;16.298;2024-02-14T11:16:47;7.32;;;2.20;;
43504;SDS011;29098;48.184;16.298;2024-02-14T11:19:13;6.15;;;2.40;;
43504;SDS011;29098;48.184;16.298;2024-02-14T11:24:09;7.43;;;1.90;;
43504;SDS011;29098;48.184;16.298;2024-02-14T11:26:39;7.03;;;3.88;;
43504;SDS011;29098;48.184;16.298;2024-02-14T11:31:39;6.47;;;2.40;;
43504;SDS011;29098;48.184;16.298;2024-02-14T11:34:05;6.15;;;2.10;;
43504;SDS011;29098;48.184;16.298;2024-02-14T11:36:31;5.40;;;2.67;;
43504;SDS011;29098;48.184;16.298;2024-02-14T11:38:58;6.63;;;2.28;;
43504;SDS011;29098;48.184;16.298;2024-02-14T11:41:27;7.07;;;2.22;;
43504;SDS011;29098;48.184;16.298;2024-02-14T11:43:52;4.72;;;1.98;;
43504;SDS011;29098;48.184;16.298;2024-02-14T11:46:18;5.53;;;2.15;;
43504;SDS011;29098;48.184;16.298;2024-02-14T11:48:44;7.28;;;2.17;;
43504;SDS011;29098;48.184;16.298;2024-02-14T11:51:11;5.13;;;1.60;;
43504;SDS011;29098;48.184;16.298;2024-02-14T11:53:36;5.40;;;1.90;;
43504;SDS011;29098;48.184;16.298;2024-02-14T11:56:04;4.18;;;1.35;;
43504;SDS011;29098;48.184;16.298;2024-02-14T11:58:30;3.55;;;1.85;;
43504;SDS011;29098;48.184;16.298;2024-02-14T12:00:56;8.02;;;1.88;;
43504;SDS011;29098;48.184;16.298;2024-02-14T12:03:22;2.63;;;1.00;;
43504;SDS011;29098;48.184;16.298;2024-02-14T12:05:51;2.17;;;0.88;;
43504;SDS011;29098;48.184;16.298;2024-02-14T12:08:17;3.10;;;1.10;;
43504;SDS011;29098;48.184;16.298;2024-02-14T12:10:43;2.60;;;1.00;;
43504;SDS011;29098;48.184;16.298;2024-02-14T12:13:15;2.58;;;0.90;;
43504;SDS011;29098;48.184;16.298;2024-02-14T12:15:45;5.03;;;0.98;;
43504;SDS011;29098;48.184;16.298;2024-02-14T12:18:11;2.47;;;1.00;;
43504;SDS011;29098;48.184;16.298;2024-02-14T12:20:37;1.83;;;0.77;;
43504;SDS011;29098;48.184;16.298;2024-02-14T12:23:03;2.63;;;0.75;;
43504;SDS011;29098;48.184;16.298;2024-02-14T12:25:30;2.28;;;0.90;;
43504;SDS011;29098;48.184;16.298;2024-02-14T12:27:57;2.80;;;1.10;;
43504;SDS011;29098;48.184;16.298;2024-02-14T12:30:23;3.42;;;1.13;;
43504;SDS011;29098;48.184;16.298;2024-02-14T12:33:07;3.75;;;1.08;;
43504;SDS011;29098;48.184;16.298;2024-02-14T12:35:34;2.97;;;1.13;;
43504;SDS011;29098;48.184;16.298;2024-02-14T12:38:07;3.65;;;0.90;;
43504;SDS011;29098;48.184;16.298;2024-02-14T12:40:35;3.72;;;1.35;;
43504;SDS011;29098;48.184;16.298;2024-02-14T12:43:01;3.65;;;1.00;;
43504;SDS011;29098;48.184;16.298;2024-02-14T12:45:26;6.20;;;1.55;;
43504;SDS011;29098;48.184;16.298;2024-02-14T12:47:52;3.90;;;1.38;;
43504;SDS011;29098;48.184;16.298;2024-02-14T12:50:18;4.82;;;1.23;;
43504;SDS011;29098;48.184;16.298;2024-02-14T12:52:45;6.05;;;1.75;;
43504;SDS011;29098;48.184;16.298;2024-02-14T12:55:11;3.35;;;1.23;;
43504;SDS011;29098;48.184;16.298;2024-02-14T12:57:37;3.90;;;1.60;;
43504;SDS011;29098;48.184;16.298;2024-02-14T13:00:04;5.47;;;1.55;;
43504;SDS011;29098;48.184;16.298;2024-02-14T13:02:34;3.15;;;1.10;;
43504;SDS011;29098;48.184;16.298;2024-02-14T13:05:00;4.45;;;1.50;;
43504;SDS011;29098;48.184;16.298;2024-02-14T13:07:27;4.63;;;1.20;;
43504;SDS011;29098;48.184;16.298;2024-02-14T13:09:53;5.28;;;1.30;;
43504;SDS011;29098;48.184;16.298;2024-02-14T13:12:20;4.70;;;1.65;;
43504;SDS011;29098;48.184;16.298;2024-02-14T13:14:46;2.58;;;1.20;;
43504;SDS011;29098;48.184;16.298;2024-02-14T13:17:11;4.47;;;1.50;;
43504;SDS011;29098;48.184;16.298;2024-02-14T13:19:37;4.28;;;1.65;;
43504;SDS011;29098;48.184;16.298;2024-02-14T13:22:04;5.65;;;1.33;;
43504;SDS011;29098;48.184;16.298;2024-02-14T13:24:30;8.43;;;1.55;;
43504;SDS011;29098;48.184;16.298;2024-02-14T13:26:55;2.97;;;1.17;;
43504;SDS011;29098;48.184;16.298;2024-02-14T13:29:22;9.05;;;3.78;;
43504;SDS011;29098;48.184;16.298;2024-02-14T13:31:49;3.63;;;1.35;;
43504;SDS011;29098;48.184;16.298;2024-02-14T13:34:15;4.28;;;1.23;;
43504;SDS011;29098;48.184;16.298;2024-02-14T13:36:40;3.88;;;1.88;;
43504;SDS011;29098;48.184;16.298;2024-02-14T13:39:06;4.97;;;1.65;;
43504;SDS011;29098;48.184;16.298;2024-02-14T13:41:32;2.85;;;1.17;;
43504;SDS011;29098;48.184;16.298;2024-02-14T13:43:58;3.45;;;1.33;;
43504;SDS011;29098;48.184;16.298;2024-02-14T13:46:24;2.58;;;1.33;;
43504;SDS011;29098;48.184;16.298;2024-02-14T13:48:51;3.78;;;1.40;;
43504;SDS011;29098;48.184;16.298;2024-02-14T13:51:17;3.58;;;1.23;;
43504;SDS011;29098;48.184;16.298;2024-02-14T13:53:42;4.53;;;1.70;;
43504;SDS011;29098;48.184;16.298;2024-02-14T13:56:08;2.92;;;1.20;;
43504;SDS011;29098;48.184;16.298;2024-02-14T13:58:34;2.40;;;1.15;;
43504;SDS011;29098;48.184;16.298;2024-02-14T14:00:59;3.22;;;1.20;;
43504;SDS011;29098;48.184;16.298;2024-02-14T14:03:25;4.75;;;1.55;;
43504;SDS011;29098;48.184;16.298;2024-02-14T14:05:52;2.35;;;1.27;;
43504;SDS011;29098;48.184;16.298;2024-02-14T14:08:18;3.58;;;1.75;;
43504;SDS011;29098;48.184;16.298;2024-02-14T14:10:43;8.57;;;2.17;;
43504;SDS011;29098;48.184;16.298;2024-02-14T14:13:10;3.08;;;1.48;;
43504;SDS011;29098;48.184;16.298;2024-02-14T14:15:35;3.97;;;1.70;;
43504;SDS011;29098;48.184;16.298;2024-02-14T14:18:01;4.95;;;1.20;;
43504;SDS011;29098;48.184;16.298;2024-02-14T14:20:26;4.82;;;1.70;;
43504;SDS011;29098;48.184;16.298;2024-02-14T14:22:52;2.63;;;1.30;;
43504;SDS011;29098;48.184;16.298;2024-02-14T14:25:18;3.65;;;1.30;;
43504;SDS011;29098;48.184;16.298;2024-02-14T14:27:43;6.18;;;1.50;;
43504;SDS011;29098;48.184;16.298;2024-02-14T14:30:09;4.53;;;1.45;;
43504;SDS011;29098;48.184;16.298;2024-02-14T14:32:35;4.93;;;1.75;;